sensor_id;sensor_type;location;lat;lon;timestamp;P1;durP1;ratioP1;P2;durP2;ratioP2
12852;SDS011;6495;51.808;7.478;2022-07-04T00:02:01;1.52;;;1.17;;
12852;SDS011;6495;51.808;7.478;2022-07-04T00:04:31;1.63;;;1.20;;
12852;SDS011;6495;51.808;7.478;2022-07-04T00:07:00;1.90;;;1.38;;
12852;SDS011;6495;51.808;7.478;2022-07-04T00:09:28;2.15;;;1.33;;
12852;SDS011;6495;51.808;7.478;2022-07-04T00:11:56;1.42;;;1.20;;
12852;SDS011;6495;51.808;7.478;2022-07-04T00:14:24;3.08;;;1.40;;
12852;SDS011;6495;51.808;7.478;2022-07-04T00:16:52;1.77;;;1.27;;
12852;SDS011;6495;51.808;7.478;2022-07-04T00:19:20;2.05;;;1.17;;
12852;SDS011;6495;51.808;7.478;2022-07-04T00:21:50;2.05;;;1.27;;
12852;SDS011;6495;51.808;7.478;2022-07-04T00:24:19;2.10;;;1.20;;
12852;SDS011;6495;51.808;7.478;2022-07-04T00:26:47;2.00;;;1.58;;
12852;SDS011;6495;51.808;7.478;2022-07-04T00:29:15;1.52;;;1.30;;
12852;SDS011;6495;51.808;7.478;2022-07-04T00:31:43;1.80;;;1.40;;
12852;SDS011;6495;51.808;7.478;2022-07-04T00:34:12;1.35;;;1.20;;
12852;SDS011;6495;51.808;7.478;2022-07-04T00:36:40;1.95;;;1.50;;
12852;SDS011;6495;51.808;7.478;2022-07-04T00:39:09;2.03;;;1.30;;
12852;SDS011;6495;51.808;7.478;2022-07-04T00:41:37;2.22;;;1.40;;
12852;SDS011;6495;51.808;7.478;2022-07-04T00:44:06;1.73;;;1.42;;
12852;SDS011;6495;51.808;7.478;2022-07-04T00:46:39;3.38;;;1.40;;
12852;SDS011;6495;51.808;7.478;2022-07-04T00:49:08;1.52;;;1.20;;
12852;SDS011;6495;51.808;7.478;2022-07-04T00:51:38;1.42;;;1.33;;
12852;SDS011;6495;51.808;7.478;2022-07-04T00:54:07;2.08;;;1.58;;
12852;SDS011;6495;51.808;7.478;2022-07-04T00:56:41;2.20;;;1.80;;
12852;SDS011;6495;51.808;7.478;2022-07-04T00:59:11;1.73;;;1.40;;
12852;SDS011;6495;51.808;7.478;2022-07-04T01:01:40;2.90;;;1.70;;
12852;SDS011;6495;51.808;7.478;2022-07-04T01:04:08;1.48;;;1.38;;
12852;SDS011;6495;51.808;7.478;2022-07-04T01:06:36;2.05;;;1.50;;
12852;SDS011;6495;51.808;7.478;2022-07-04T01:09:05;1.85;;;1.75;;
12852;SDS011;6495;51.808;7.478;2022-07-04T01:11:35;3.72;;;1.70;;
12852;SDS011;6495;51.808;7.478;2022-07-04T01:14:03;4.15;;;1.67;;
12852;SDS011;6495;51.808;7.478;2022-07-04T01:16:32;2.35;;;1.60;;
12852;SDS011;6495;51.808;7.478;2022-07-04T01:19:01;2.15;;;1.80;;
12852;SDS011;6495;51.808;7.478;2022-07-04T01:21:31;2.65;;;1.63;;
12852;SDS011;6495;51.808;7.478;2022-07-04T01:24:00;3.60;;;1.75;;
12852;SDS011;6495;51.808;7.478;2022-07-04T01:26:28;2.58;;;1.90;;
12852;SDS011;6495;51.808;7.478;2022-07-04T01:28:57;6.25;;;1.98;;
12852;SDS011;6495;51.808;7.478;2022-07-04T01:31:26;2.63;;;1.70;;
12852;SDS011;6495;51.808;7.478;2022-07-04T01:33:54;1.55;;;1.42;;
12852;SDS011;6495;51.808;7.478;2022-07-04T01:36:22;2.17;;;1.80;;
12852;SDS011;6495;51.808;7.478;2022-07-04T01:38:52;3.35;;;1.63;;
12852;SDS011;6495;51.808;7.478;2022-07-04T01:41:20;2.25;;;1.67;;
12852;SDS011;6495;51.808;7.478;2022-07-04T01:43:48;2.45;;;1.55;;
12852;SDS011;6495;51.808;7.478;2022-07-04T01:46:17;3.67;;;1.63;;
12852;SDS011;6495;51.808;7.478;2022-07-04T01:48:45;3.28;;;1.55;;
12852;SDS011;6495;51.808;7.478;2022-07-04T01:51:13;1.88;;;1.60;;
12852;SDS011;6495;51.808;7.478;2022-07-04T01:53:41;2.10;;;1.90;;
12852;SDS011;6495;51.808;7.478;2022-07-04T01:56:11;6.57;;;2.03;;
12852;SDS011;6495;51.808;7.478;2022-07-04T01:58:39;8.35;;;1.65;;
12852;SDS011;6495;51.808;7.478;2022-07-04T02:01:07;1.60;;;1.50;;
12852;SDS011;6495;51.808;7.478;2022-07-04T02:03:53;2.60;;;1.83;;
12852;SDS011;6495;51.808;7.478;2022-07-04T02:06:21;1.67;;;1.50;;
12852;SDS011;6495;51.808;7.478;2022-07-04T02:08:50;3.03;;;1.67;;
12852;SDS011;6495;51.808;7.478;2022-07-04T02:11:37;4.47;;;2.13;;
12852;SDS011;6495;51.808;7.478;2022-07-04T02:14:23;3.17;;;1.75;;
12852;SDS011;6495;51.808;7.478;2022-07-04T02:16:51;4.18;;;1.75;;
12852;SDS011;6495;51.808;7.478;2022-07-04T02:19:19;2.38;;;2.00;;
12852;SDS011;6495;51.808;7.478;2022-07-04T02:21:48;1.98;;;1.80;;
12852;SDS011;6495;51.808;7.478;2022-07-04T02:24:16;2.10;;;1.70;;
12852;SDS011;6495;51.808;7.478;2022-07-04T02:26:46;2.50;;;2.30;;
12852;SDS011;6495;51.808;7.478;2022-07-04T02:29:15;2.33;;;2.10;;
12852;SDS011;6495;51.808;7.478;2022-07-04T02:31:43;3.85;;;2.03;;
12852;SDS011;6495;51.808;7.478;2022-07-04T02:34:11;3.40;;;1.55;;
12852;SDS011;6495;51.808;7.478;2022-07-04T02:36:40;4.35;;;1.90;;
12852;SDS011;6495;51.808;7.478;2022-07-04T02:39:08;4.55;;;2.15;;
12852;SDS011;6495;51.808;7.478;2022-07-04T02:41:36;2.00;;;1.80;;
12852;SDS011;6495;51.808;7.478;2022-07-04T02:44:06;2.55;;;1.92;;
12852;SDS011;6495;51.808;7.478;2022-07-04T02:46:34;1.92;;;1.80;;
12852;SDS011;6495;51.808;7.478;2022-07-04T02:49:02;2.42;;;2.00;;
12852;SDS011;6495;51.808;7.478;2022-07-04T02:51:31;2.47;;;1.85;;
12852;SDS011;6495;51.808;7.478;2022-07-04T02:53:59;2.28;;;1.67;;
12852;SDS011;6495;51.808;7.478;2022-07-04T02:56:28;4.47;;;1.88;;
12852;SDS011;6495;51.808;7.478;2022-07-04T02:58:56;3.65;;;2.00;;
12852;SDS011;6495;51.808;7.478;2022-07-04T03:01:25;2.95;;;2.10;;
12852;SDS011;6495;51.808;7.478;2022-07-04T03:03:54;5.30;;;1.92;;
12852;SDS011;6495;51.808;7.478;2022-07-04T03:06:22;3.05;;;2.00;;
12852;SDS011;6495;51.808;7.478;2022-07-04T03:08:50;2.60;;;1.98;;
12852;SDS011;6495;51.808;7.478;2022-07-04T03:11:19;3.42;;;1.98;;
12852;SDS011;6495;51.808;7.478;2022-07-04T03:13:47;4.35;;;2.00;;
12852;SDS011;6495;51.808;7.478;2022-07-04T03:16:15;4.55;;;1.80;;
12852;SDS011;6495;51.808;7.478;2022-07-04T03:18:45;1.90;;;1.80;;
12852;SDS011;6495;51.808;7.478;2022-07-04T03:21:13;3.00;;;1.67;;
12852;SDS011;6495;51.808;7.478;2022-07-04T03:23:41;1.83;;;1.70;;
12852;SDS011;6495;51.808;7.478;2022-07-04T03:26:23;2.30;;;2.10;;
12852;SDS011;6495;51.808;7.478;2022-07-04T03:28:52;2.85;;;2.47;;
12852;SDS011;6495;51.808;7.478;2022-07-04T03:31:20;2.47;;;1.83;;
12852;SDS011;6495;51.808;7.478;2022-07-04T03:33:51;3.38;;;2.03;;
12852;SDS011;6495;51.808;7.478;2022-07-04T03:36:20;2.72;;;2.15;;
12852;SDS011;6495;51.808;7.478;2022-07-04T03:38:48;2.33;;;2.13;;
12852;SDS011;6495;51.808;7.478;2022-07-04T03:41:17;3.15;;;2.58;;
12852;SDS011;6495;51.808;7.478;2022-07-04T03:43:45;3.40;;;2.28;;
12852;SDS011;6495;51.808;7.478;2022-07-04T03:46:13;2.60;;;2.30;;
12852;SDS011;6495;51.808;7.478;2022-07-04T03:48:41;3.58;;;2.20;;
12852;SDS011;6495;51.808;7.478;2022-07-04T03:51:11;2.28;;;2.08;;
12852;SDS011;6495;51.808;7.478;2022-07-04T03:53:40;2.13;;;1.92;;
12852;SDS011;6495;51.808;7.478;2022-07-04T03:56:09;2.97;;;2.13;;
12852;SDS011;6495;51.808;7.478;2022-07-04T03:58:37;3.20;;;2.15;;
12852;SDS011;6495;51.808;7.478;2022-07-04T04:01:05;5.88;;;2.08;;
12852;SDS011;6495;51.808;7.478;2022-07-04T04:03:34;2.88;;;2.40;;
12852;SDS011;6495;51.808;7.478;2022-07-04T04:06:21;2.50;;;2.30;;
12852;SDS011;6495;51.808;7.478;2022-07-04T04:08:50;3.90;;;2.72;;
12852;SDS011;6495;51.808;7.478;2022-07-04T04:11:18;2.47;;;2.28;;
12852;SDS011;6495;51.808;7.478;2022-07-04T04:13:48;2.90;;;2.20;;
12852;SDS011;6495;51.808;7.478;2022-07-04T04:16:16;3.45;;;2.65;;
12852;SDS011;6495;51.808;7.478;2022-07-04T04:18:44;4.60;;;2.75;;
12852;SDS011;6495;51.808;7.478;2022-07-04T04:21:12;3.22;;;2.33;;
12852;SDS011;6495;51.808;7.478;2022-07-04T04:23:42;6.60;;;2.50;;
12852;SDS011;6495;51.808;7.478;2022-07-04T04:26:10;4.38;;;2.30;;
12852;SDS011;6495;51.808;7.478;2022-07-04T04:28:38;2.47;;;2.25;;
12852;SDS011;6495;51.808;7.478;2022-07-04T04:31:06;4.45;;;2.55;;
12852;SDS011;6495;51.808;7.478;2022-07-04T04:33:35;2.92;;;2.22;;
12852;SDS011;6495;51.808;7.478;2022-07-04T04:36:03;3.80;;;2.33;;
12852;SDS011;6495;51.808;7.478;2022-07-04T04:38:32;5.30;;;2.50;;
12852;SDS011;6495;51.808;7.478;2022-07-04T04:41:02;3.72;;;2.00;;
12852;SDS011;6495;51.808;7.478;2022-07-04T04:43:30;2.08;;;1.90;;
12852;SDS011;6495;51.808;7.478;2022-07-04T04:45:59;2.47;;;2.10;;
12852;SDS011;6495;51.808;7.478;2022-07-04T04:48:28;2.33;;;1.88;;
12852;SDS011;6495;51.808;7.478;2022-07-04T04:50:56;4.88;;;2.15;;
12852;SDS011;6495;51.808;7.478;2022-07-04T04:53:24;2.28;;;2.08;;
12852;SDS011;6495;51.808;7.478;2022-07-04T04:55:53;2.63;;;2.05;;
12852;SDS011;6495;51.808;7.478;2022-07-04T04:58:23;2.15;;;1.95;;
12852;SDS011;6495;51.808;7.478;2022-07-04T05:00:54;4.10;;;1.98;;
12852;SDS011;6495;51.808;7.478;2022-07-04T05:03:42;3.15;;;2.40;;
12852;SDS011;6495;51.808;7.478;2022-07-04T05:06:10;3.50;;;2.22;;
12852;SDS011;6495;51.808;7.478;2022-07-04T05:08:38;4.13;;;2.10;;
12852;SDS011;6495;51.808;7.478;2022-07-04T05:11:06;2.42;;;2.08;;
12852;SDS011;6495;51.808;7.478;2022-07-04T05:13:36;3.50;;;2.28;;
12852;SDS011;6495;51.808;7.478;2022-07-04T05:16:04;4.45;;;2.60;;
12852;SDS011;6495;51.808;7.478;2022-07-04T05:18:32;4.80;;;2.70;;
12852;SDS011;6495;51.808;7.478;2022-07-04T05:21:00;2.53;;;2.33;;
12852;SDS011;6495;51.808;7.478;2022-07-04T05:23:28;4.32;;;2.22;;
12852;SDS011;6495;51.808;7.478;2022-07-04T05:25:56;3.05;;;2.55;;
12852;SDS011;6495;51.808;7.478;2022-07-04T05:28:24;3.15;;;2.50;;
12852;SDS011;6495;51.808;7.478;2022-07-04T05:30:54;2.55;;;2.35;;
12852;SDS011;6495;51.808;7.478;2022-07-04T05:33:22;3.72;;;2.70;;
12852;SDS011;6495;51.808;7.478;2022-07-04T05:35:50;4.60;;;2.58;;
12852;SDS011;6495;51.808;7.478;2022-07-04T05:38:18;3.88;;;2.78;;
12852;SDS011;6495;51.808;7.478;2022-07-04T05:40:46;3.88;;;2.70;;
12852;SDS011;6495;51.808;7.478;2022-07-04T05:43:14;3.22;;;2.67;;
12852;SDS011;6495;51.808;7.478;2022-07-04T05:45:42;4.70;;;3.00;;
12852;SDS011;6495;51.808;7.478;2022-07-04T05:48:13;5.25;;;2.75;;
12852;SDS011;6495;51.808;7.478;2022-07-04T05:50:52;3.10;;;2.80;;
12852;SDS011;6495;51.808;7.478;2022-07-04T05:53:20;3.45;;;2.95;;
12852;SDS011;6495;51.808;7.478;2022-07-04T05:55:49;2.72;;;2.42;;
12852;SDS011;6495;51.808;7.478;2022-07-04T05:58:17;4.90;;;3.00;;
12852;SDS011;6495;51.808;7.478;2022-07-04T06:00:48;4.35;;;2.90;;
12852;SDS011;6495;51.808;7.478;2022-07-04T06:03:18;3.85;;;2.95;;
12852;SDS011;6495;51.808;7.478;2022-07-04T06:05:53;4.82;;;3.03;;
12852;SDS011;6495;51.808;7.478;2022-07-04T06:11:36;3.85;;;2.80;;
12852;SDS011;6495;51.808;7.478;2022-07-04T06:14:13;4.20;;;2.70;;
12852;SDS011;6495;51.808;7.478;2022-07-04T06:16:41;4.35;;;2.80;;
12852;SDS011;6495;51.808;7.478;2022-07-04T06:19:11;3.03;;;2.72;;
12852;SDS011;6495;51.808;7.478;2022-07-04T06:21:39;4.13;;;2.65;;
12852;SDS011;6495;51.808;7.478;2022-07-04T06:24:07;4.32;;;2.70;;
12852;SDS011;6495;51.808;7.478;2022-07-04T06:26:36;3.47;;;2.47;;
12852;SDS011;6495;51.808;7.478;2022-07-04T06:29:04;5.75;;;2.90;;
12852;SDS011;6495;51.808;7.478;2022-07-04T06:31:33;5.95;;;2.90;;
12852;SDS011;6495;51.808;7.478;2022-07-04T06:34:01;2.90;;;2.55;;
12852;SDS011;6495;51.808;7.478;2022-07-04T06:39:35;4.38;;;2.88;;
12852;SDS011;6495;51.808;7.478;2022-07-04T06:42:04;3.15;;;2.33;;
12852;SDS011;6495;51.808;7.478;2022-07-04T06:44:32;3.08;;;2.08;;
12852;SDS011;6495;51.808;7.478;2022-07-04T06:47:00;11.63;;;2.80;;
12852;SDS011;6495;51.808;7.478;2022-07-04T06:49:28;2.30;;;1.90;;
12852;SDS011;6495;51.808;7.478;2022-07-04T06:51:56;3.47;;;2.10;;
12852;SDS011;6495;51.808;7.478;2022-07-04T06:57:47;3.83;;;1.88;;
12852;SDS011;6495;51.808;7.478;2022-07-04T07:00:16;5.45;;;2.33;;
12852;SDS011;6495;51.808;7.478;2022-07-04T07:02:58;3.08;;;2.38;;
12852;SDS011;6495;51.808;7.478;2022-07-04T07:05:31;2.65;;;2.20;;
12852;SDS011;6495;51.808;7.478;2022-07-04T07:08:24;3.20;;;2.42;;
12852;SDS011;6495;51.808;7.478;2022-07-04T07:11:02;4.13;;;2.33;;
12852;SDS011;6495;51.808;7.478;2022-07-04T07:13:40;5.05;;;2.45;;
12852;SDS011;6495;51.808;7.478;2022-07-04T07:16:45;3.78;;;2.17;;
12852;SDS011;6495;51.808;7.478;2022-07-04T07:19:24;4.85;;;2.08;;
12852;SDS011;6495;51.808;7.478;2022-07-04T07:22:06;4.03;;;2.05;;
12852;SDS011;6495;51.808;7.478;2022-07-04T07:24:48;3.58;;;1.90;;
12852;SDS011;6495;51.808;7.478;2022-07-04T07:27:18;4.45;;;1.80;;
12852;SDS011;6495;51.808;7.478;2022-07-04T07:29:48;2.70;;;1.85;;
12852;SDS011;6495;51.808;7.478;2022-07-04T07:32:21;3.13;;;1.98;;
12852;SDS011;6495;51.808;7.478;2022-07-04T07:35:05;4.18;;;1.83;;
12852;SDS011;6495;51.808;7.478;2022-07-04T07:37:35;6.38;;;1.70;;
12852;SDS011;6495;51.808;7.478;2022-07-04T07:40:06;2.85;;;1.80;;
12852;SDS011;6495;51.808;7.478;2022-07-04T07:42:42;1.70;;;1.55;;
12852;SDS011;6495;51.808;7.478;2022-07-04T07:45:10;2.50;;;1.40;;
12852;SDS011;6495;51.808;7.478;2022-07-04T07:47:48;2.67;;;1.52;;
12852;SDS011;6495;51.808;7.478;2022-07-04T07:50:16;1.63;;;1.02;;
12852;SDS011;6495;51.808;7.478;2022-07-04T07:52:47;3.15;;;1.40;;
12852;SDS011;6495;51.808;7.478;2022-07-04T07:55:16;3.00;;;1.65;;
12852;SDS011;6495;51.808;7.478;2022-07-04T07:57:49;2.25;;;1.15;;
12852;SDS011;6495;51.808;7.478;2022-07-04T08:00:20;3.97;;;1.48;;
12852;SDS011;6495;51.808;7.478;2022-07-04T08:03:11;6.05;;;1.83;;
12852;SDS011;6495;51.808;7.478;2022-07-04T08:05:57;2.35;;;1.60;;
12852;SDS011;6495;51.808;7.478;2022-07-04T08:08:25;1.30;;;1.00;;
12852;SDS011;6495;51.808;7.478;2022-07-04T08:10:56;3.30;;;1.50;;
12852;SDS011;6495;51.808;7.478;2022-07-04T08:13:36;5.00;;;1.27;;
12852;SDS011;6495;51.808;7.478;2022-07-04T08:16:17;2.67;;;1.48;;
12852;SDS011;6495;51.808;7.478;2022-07-04T08:19:20;3.22;;;1.40;;
12852;SDS011;6495;51.808;7.478;2022-07-04T08:21:55;3.40;;;1.40;;
12852;SDS011;6495;51.808;7.478;2022-07-04T08:24:41;3.85;;;1.40;;
12852;SDS011;6495;51.808;7.478;2022-07-04T08:27:26;2.53;;;1.30;;
12852;SDS011;6495;51.808;7.478;2022-07-04T08:30:00;1.10;;;0.80;;
12852;SDS011;6495;51.808;7.478;2022-07-04T08:32:33;1.88;;;1.10;;
12852;SDS011;6495;51.808;7.478;2022-07-04T08:35:03;3.40;;;1.25;;
12852;SDS011;6495;51.808;7.478;2022-07-04T08:37:41;1.73;;;1.08;;
12852;SDS011;6495;51.808;7.478;2022-07-04T08:40:19;1.30;;;1.13;;
12852;SDS011;6495;51.808;7.478;2022-07-04T08:43:01;2.40;;;0.90;;
12852;SDS011;6495;51.808;7.478;2022-07-04T08:45:40;2.17;;;0.90;;
12852;SDS011;6495;51.808;7.478;2022-07-04T08:48:38;3.55;;;1.02;;
12852;SDS011;6495;51.808;7.478;2022-07-04T08:51:23;1.00;;;1.00;;
12852;SDS011;6495;51.808;7.478;2022-07-04T08:54:09;2.40;;;1.05;;
12852;SDS011;6495;51.808;7.478;2022-07-04T08:57:02;3.05;;;1.10;;
12852;SDS011;6495;51.808;7.478;2022-07-04T08:59:46;1.50;;;1.00;;
12852;SDS011;6495;51.808;7.478;2022-07-04T09:02:19;1.00;;;0.90;;
12852;SDS011;6495;51.808;7.478;2022-07-04T09:05:00;1.20;;;0.88;;
12852;SDS011;6495;51.808;7.478;2022-07-04T09:07:35;2.45;;;0.90;;
12852;SDS011;6495;51.808;7.478;2022-07-04T09:10:12;2.58;;;1.00;;
12852;SDS011;6495;51.808;7.478;2022-07-04T09:12:43;3.75;;;1.20;;
12852;SDS011;6495;51.808;7.478;2022-07-04T09:15:31;4.25;;;1.20;;
12852;SDS011;6495;51.808;7.478;2022-07-04T09:18:05;4.03;;;1.00;;
12852;SDS011;6495;51.808;7.478;2022-07-04T09:20:35;2.30;;;1.20;;
12852;SDS011;6495;51.808;7.478;2022-07-04T09:23:05;2.20;;;1.20;;
12852;SDS011;6495;51.808;7.478;2022-07-04T09:26:05;3.13;;;1.25;;
12852;SDS011;6495;51.808;7.478;2022-07-04T09:28:43;1.13;;;1.00;;
12852;SDS011;6495;51.808;7.478;2022-07-04T09:31:23;2.05;;;1.40;;
12852;SDS011;6495;51.808;7.478;2022-07-04T09:34:00;1.20;;;1.00;;
12852;SDS011;6495;51.808;7.478;2022-07-04T09:36:43;2.13;;;0.80;;
12852;SDS011;6495;51.808;7.478;2022-07-04T09:39:19;3.53;;;0.98;;
12852;SDS011;6495;51.808;7.478;2022-07-04T09:41:53;1.88;;;1.10;;
12852;SDS011;6495;51.808;7.478;2022-07-04T09:44:29;2.15;;;1.20;;
12852;SDS011;6495;51.808;7.478;2022-07-04T09:47:20;1.27;;;0.90;;
12852;SDS011;6495;51.808;7.478;2022-07-04T09:49:59;1.95;;;1.00;;
12852;SDS011;6495;51.808;7.478;2022-07-04T09:52:34;3.58;;;0.95;;
12852;SDS011;6495;51.808;7.478;2022-07-04T09:55:25;1.20;;;0.95;;
12852;SDS011;6495;51.808;7.478;2022-07-04T09:57:55;2.65;;;1.00;;
12852;SDS011;6495;51.808;7.478;2022-07-04T10:00:30;2.15;;;0.98;;
12852;SDS011;6495;51.808;7.478;2022-07-04T10:03:17;1.75;;;1.00;;
12852;SDS011;6495;51.808;7.478;2022-07-04T10:06:03;3.72;;;0.80;;
12852;SDS011;6495;51.808;7.478;2022-07-04T10:08:33;1.48;;;0.90;;
12852;SDS011;6495;51.808;7.478;2022-07-04T10:11:07;1.10;;;0.88;;
12852;SDS011;6495;51.808;7.478;2022-07-04T10:13:46;3.72;;;1.05;;
12852;SDS011;6495;51.808;7.478;2022-07-04T10:16:18;0.95;;;0.90;;
12852;SDS011;6495;51.808;7.478;2022-07-04T10:18:54;0.80;;;0.70;;
12852;SDS011;6495;51.808;7.478;2022-07-04T10:21:26;0.98;;;0.80;;
12852;SDS011;6495;51.808;7.478;2022-07-04T10:23:56;2.88;;;0.80;;
12852;SDS011;6495;51.808;7.478;2022-07-04T10:26:27;2.35;;;0.85;;
12852;SDS011;6495;51.808;7.478;2022-07-04T10:29:01;1.70;;;0.82;;
12852;SDS011;6495;51.808;7.478;2022-07-04T10:31:39;7.07;;;1.27;;
12852;SDS011;6495;51.808;7.478;2022-07-04T10:34:15;0.88;;;0.80;;
12852;SDS011;6495;51.808;7.478;2022-07-04T10:37:00;1.08;;;0.70;;
12852;SDS011;6495;51.808;7.478;2022-07-04T10:39:46;2.58;;;0.80;;
12852;SDS011;6495;51.808;7.478;2022-07-04T10:42:42;2.38;;;0.90;;
12852;SDS011;6495;51.808;7.478;2022-07-04T10:46:27;0.60;;;0.60;;
12852;SDS011;6495;51.808;7.478;2022-07-04T10:49:24;0.80;;;0.80;;
12852;SDS011;6495;51.808;7.478;2022-07-04T10:52:11;1.83;;;0.82;;
12852;SDS011;6495;51.808;7.478;2022-07-04T10:54:54;1.42;;;0.88;;
12852;SDS011;6495;51.808;7.478;2022-07-04T10:57:52;1.23;;;0.90;;
12852;SDS011;6495;51.808;7.478;2022-07-04T11:00:32;3.45;;;0.90;;
12852;SDS011;6495;51.808;7.478;2022-07-04T11:03:23;0.82;;;0.82;;
12852;SDS011;6495;51.808;7.478;2022-07-04T11:06:51;0.82;;;0.77;;
12852;SDS011;6495;51.808;7.478;2022-07-04T11:09:23;1.92;;;1.00;;
12852;SDS011;6495;51.808;7.478;2022-07-04T11:11:55;1.05;;;0.80;;
12852;SDS011;6495;51.808;7.478;2022-07-04T11:14:30;0.80;;;0.80;;
12852;SDS011;6495;51.808;7.478;2022-07-04T11:17:12;0.52;;;0.52;;
12852;SDS011;6495;51.808;7.478;2022-07-04T11:19:44;0.82;;;0.82;;
12852;SDS011;6495;51.808;7.478;2022-07-04T11:22:21;1.00;;;0.90;;
12852;SDS011;6495;51.808;7.478;2022-07-04T11:24:52;0.88;;;0.88;;
12852;SDS011;6495;51.808;7.478;2022-07-04T11:27:21;0.95;;;0.85;;
12852;SDS011;6495;51.808;7.478;2022-07-04T11:29:50;2.15;;;0.90;;
12852;SDS011;6495;51.808;7.478;2022-07-04T11:32:19;1.00;;;0.75;;
12852;SDS011;6495;51.808;7.478;2022-07-04T11:34:56;1.20;;;0.90;;
12852;SDS011;6495;51.808;7.478;2022-07-04T11:37:27;1.65;;;1.00;;
12852;SDS011;6495;51.808;7.478;2022-07-04T11:39:57;1.90;;;0.90;;
12852;SDS011;6495;51.808;7.478;2022-07-04T11:42:40;2.70;;;0.95;;
12852;SDS011;6495;51.808;7.478;2022-07-04T11:45:50;1.42;;;0.95;;
12852;SDS011;6495;51.808;7.478;2022-07-04T11:48:22;1.00;;;0.85;;
12852;SDS011;6495;51.808;7.478;2022-07-04T11:50:51;1.85;;;0.90;;
12852;SDS011;6495;51.808;7.478;2022-07-04T11:53:20;4.40;;;1.13;;
12852;SDS011;6495;51.808;7.478;2022-07-04T11:55:53;1.90;;;0.93;;
12852;SDS011;6495;51.808;7.478;2022-07-04T11:58:22;11.07;;;1.02;;
12852;SDS011;6495;51.808;7.478;2022-07-04T12:00:51;2.90;;;1.10;;
12852;SDS011;6495;51.808;7.478;2022-07-04T12:03:19;1.98;;;0.80;;
12852;SDS011;6495;51.808;7.478;2022-07-04T12:05:59;1.77;;;0.93;;
12852;SDS011;6495;51.808;7.478;2022-07-04T12:08:28;1.23;;;1.00;;
12852;SDS011;6495;51.808;7.478;2022-07-04T12:10:58;2.00;;;1.10;;
12852;SDS011;6495;51.808;7.478;2022-07-04T12:13:26;2.88;;;0.90;;
12852;SDS011;6495;51.808;7.478;2022-07-04T12:15:57;1.15;;;0.90;;
12852;SDS011;6495;51.808;7.478;2022-07-04T12:18:28;1.20;;;0.90;;
12852;SDS011;6495;51.808;7.478;2022-07-04T12:21:10;1.45;;;0.90;;
12852;SDS011;6495;51.808;7.478;2022-07-04T12:23:49;3.47;;;1.00;;
12852;SDS011;6495;51.808;7.478;2022-07-04T12:26:41;1.52;;;1.02;;
12852;SDS011;6495;51.808;7.478;2022-07-04T12:29:20;1.58;;;1.00;;
12852;SDS011;6495;51.808;7.478;2022-07-04T12:31:56;2.85;;;0.80;;
12852;SDS011;6495;51.808;7.478;2022-07-04T12:34:25;3.97;;;1.20;;
12852;SDS011;6495;51.808;7.478;2022-07-04T12:36:56;1.10;;;1.00;;
12852;SDS011;6495;51.808;7.478;2022-07-04T12:39:28;3.28;;;0.90;;
12852;SDS011;6495;51.808;7.478;2022-07-04T12:42:06;1.20;;;1.05;;
12852;SDS011;6495;51.808;7.478;2022-07-04T12:44:40;1.55;;;0.90;;
12852;SDS011;6495;51.808;7.478;2022-07-04T12:47:10;1.38;;;1.00;;
12852;SDS011;6495;51.808;7.478;2022-07-04T12:49:52;1.23;;;1.00;;
12852;SDS011;6495;51.808;7.478;2022-07-04T12:52:59;1.35;;;1.17;;
12852;SDS011;6495;51.808;7.478;2022-07-04T12:56:01;2.08;;;1.00;;
12852;SDS011;6495;51.808;7.478;2022-07-04T12:58:46;2.92;;;1.08;;
12852;SDS011;6495;51.808;7.478;2022-07-04T13:01:21;2.95;;;0.98;;
12852;SDS011;6495;51.808;7.478;2022-07-04T13:04:05;1.75;;;1.17;;
12852;SDS011;6495;51.808;7.478;2022-07-04T13:06:45;2.20;;;1.20;;
12852;SDS011;6495;51.808;7.478;2022-07-04T13:09:32;2.38;;;1.33;;
12852;SDS011;6495;51.808;7.478;2022-07-04T13:12:16;1.33;;;1.00;;
12852;SDS011;6495;51.808;7.478;2022-07-04T13:15:00;1.90;;;0.90;;
12852;SDS011;6495;51.808;7.478;2022-07-04T13:17:32;1.35;;;1.00;;
12852;SDS011;6495;51.808;7.478;2022-07-04T13:20:01;3.10;;;1.20;;
12852;SDS011;6495;51.808;7.478;2022-07-04T13:22:39;2.05;;;1.00;;
12852;SDS011;6495;51.808;7.478;2022-07-04T13:28:00;6.40;;;1.58;;
12852;SDS011;6495;51.808;7.478;2022-07-04T13:30:33;1.10;;;1.00;;
12852;SDS011;6495;51.808;7.478;2022-07-04T13:33:01;2.20;;;1.20;;
12852;SDS011;6495;51.808;7.478;2022-07-04T13:35:32;1.38;;;1.20;;
12852;SDS011;6495;51.808;7.478;2022-07-04T13:39:00;0.90;;;0.90;;
12852;SDS011;6495;51.808;7.478;2022-07-04T13:41:32;3.08;;;1.20;;
12852;SDS011;6495;51.808;7.478;2022-07-04T13:44:04;3.42;;;1.00;;
12852;SDS011;6495;51.808;7.478;2022-07-04T13:46:35;84.60;;;8.38;;
12852;SDS011;6495;51.808;7.478;2022-07-04T13:49:03;3.72;;;1.30;;
12852;SDS011;6495;51.808;7.478;2022-07-04T13:51:39;6.13;;;1.20;;
12852;SDS011;6495;51.808;7.478;2022-07-04T13:54:08;3.38;;;1.40;;
12852;SDS011;6495;51.808;7.478;2022-07-04T13:56:37;2.67;;;1.25;;
12852;SDS011;6495;51.808;7.478;2022-07-04T13:59:06;3.08;;;1.25;;
12852;SDS011;6495;51.808;7.478;2022-07-04T14:01:37;1.73;;;1.30;;
12852;SDS011;6495;51.808;7.478;2022-07-04T14:04:05;2.28;;;1.30;;
12852;SDS011;6495;51.808;7.478;2022-07-04T14:06:33;3.38;;;0.98;;
12852;SDS011;6495;51.808;7.478;2022-07-04T14:09:02;0.90;;;0.90;;
12852;SDS011;6495;51.808;7.478;2022-07-04T14:11:30;1.90;;;1.15;;
12852;SDS011;6495;51.808;7.478;2022-07-04T14:14:01;1.65;;;1.10;;
12852;SDS011;6495;51.808;7.478;2022-07-04T14:19:23;1.80;;;1.00;;
12852;SDS011;6495;51.808;7.478;2022-07-04T14:21:52;1.52;;;1.17;;
12852;SDS011;6495;51.808;7.478;2022-07-04T14:24:22;1.30;;;1.20;;
12852;SDS011;6495;51.808;7.478;2022-07-04T14:26:51;6.15;;;1.13;;
12852;SDS011;6495;51.808;7.478;2022-07-04T14:29:20;1.73;;;1.25;;
12852;SDS011;6495;51.808;7.478;2022-07-04T14:31:48;2.80;;;1.30;;
12852;SDS011;6495;51.808;7.478;2022-07-04T14:34:19;5.32;;;1.45;;
12852;SDS011;6495;51.808;7.478;2022-07-04T14:36:47;2.28;;;1.30;;
12852;SDS011;6495;51.808;7.478;2022-07-04T14:39:15;2.33;;;1.15;;
12852;SDS011;6495;51.808;7.478;2022-07-04T14:42:08;1.42;;;1.25;;
12852;SDS011;6495;51.808;7.478;2022-07-04T14:48:21;1.65;;;1.30;;
12852;SDS011;6495;51.808;7.478;2022-07-04T14:50:53;1.85;;;1.02;;
12852;SDS011;6495;51.808;7.478;2022-07-04T14:53:21;2.10;;;1.10;;
12852;SDS011;6495;51.808;7.478;2022-07-04T14:55:54;1.92;;;1.25;;
12852;SDS011;6495;51.808;7.478;2022-07-04T14:58:59;17.15;;;1.88;;
12852;SDS011;6495;51.808;7.478;2022-07-04T15:01:51;2.53;;;1.60;;
12852;SDS011;6495;51.808;7.478;2022-07-04T15:04:50;1.25;;;1.15;;
12852;SDS011;6495;51.808;7.478;2022-07-04T15:07:43;2.15;;;1.00;;
12852;SDS011;6495;51.808;7.478;2022-07-04T15:10:16;3.47;;;1.23;;
12852;SDS011;6495;51.808;7.478;2022-07-04T15:13:07;2.45;;;1.15;;
12852;SDS011;6495;51.808;7.478;2022-07-04T15:15:35;2.95;;;1.27;;
12852;SDS011;6495;51.808;7.478;2022-07-04T15:18:09;1.55;;;1.38;;
12852;SDS011;6495;51.808;7.478;2022-07-04T15:20:38;2.78;;;1.23;;
12852;SDS011;6495;51.808;7.478;2022-07-04T15:26:33;1.70;;;1.15;;
12852;SDS011;6495;51.808;7.478;2022-07-04T15:29:11;5.93;;;1.55;;
12852;SDS011;6495;51.808;7.478;2022-07-04T15:32:00;1.67;;;1.50;;
12852;SDS011;6495;51.808;7.478;2022-07-04T15:34:54;3.15;;;1.27;;
12852;SDS011;6495;51.808;7.478;2022-07-04T15:37:40;1.98;;;1.27;;
12852;SDS011;6495;51.808;7.478;2022-07-04T15:40:10;2.45;;;1.20;;
12852;SDS011;6495;51.808;7.478;2022-07-04T15:42:39;2.00;;;1.23;;
12852;SDS011;6495;51.808;7.478;2022-07-04T15:45:10;1.35;;;1.25;;
12852;SDS011;6495;51.808;7.478;2022-07-04T15:47:38;3.47;;;1.13;;
12852;SDS011;6495;51.808;7.478;2022-07-04T15:50:09;1.38;;;1.23;;
12852;SDS011;6495;51.808;7.478;2022-07-04T15:52:37;1.45;;;1.33;;
12852;SDS011;6495;51.808;7.478;2022-07-04T15:55:06;2.00;;;1.50;;
12852;SDS011;6495;51.808;7.478;2022-07-04T15:58:09;3.03;;;1.10;;
12852;SDS011;6495;51.808;7.478;2022-07-04T16:00:46;3.83;;;1.30;;
12852;SDS011;6495;51.808;7.478;2022-07-04T16:03:15;3.70;;;1.50;;
12852;SDS011;6495;51.808;7.478;2022-07-04T16:05:43;2.17;;;1.58;;